Time;durP1;ratioP1;P1;durP2;ratioP2;P2;SDS_P1;SDS_P2;PMS_P1;PMS_P2;Temp;Humidity;BMP_temperature;BMP_pressure;BME280_temperature;BME280_humidity;BME280_pressure;Samples;Min_cycle;Max_cycle;Signal;HPM_P1;HPM_P2
2021/07/10 00:02:05;;;;;;;4.63;4.07;;;17.20;99.90;;;;;;5121009;28;20451;-80
2021/07/10 00:04:32;;;;;;;0.50;0.30;;;17.20;99.90;;;;;;5125909;28;20446;-81
2021/07/10 00:06:59;;;;;;;0.50;0.30;;;17.10;99.90;;;;;;5126026;28;20454;-81
2021/07/10 00:09:28;;;;;;;0.50;0.40;;;17.00;99.90;;;;;;5126122;28;20478;-79
2021/07/10 00:11:56;;;;;;;0.70;0.70;;;17.00;99.90;;;;;;5125621;28;20505;-80
2021/07/10 00:14:23;;;;;;;0.77;0.77;;;17.00;99.90;;;;;;5126202;28;20439;-80
2021/07/10 00:16:50;;;;;;;0.50;0.40;;;16.90;99.90;;;;;;5125627;27;20475;-81
2021/07/10 00:19:16;;;;;;;0.50;0.30;;;16.90;99.90;;;;;;5126272;28;20437;-80
2021/07/10 00:21:43;;;;;;;0.50;0.40;;;16.80;99.90;;;;;;5126559;28;20503;-81
2021/07/10 00:24:10;;;;;;;1.13;1.13;;;16.80;99.90;;;;;;5126210;28;20445;-81
2021/07/10 00:26:37;;;;;;;0.60;0.60;;;16.70;99.90;;;;;;5125556;28;20490;-80
2021/07/10 00:29:05;;;;;;;0.50;0.40;;;16.70;99.90;;;;;;5125699;28;20472;-82
2021/07/10 00:31:32;;;;;;;0.50;0.40;;;16.70;99.90;;;;;;5124345;28;20442;-80
2021/07/10 00:33:58;;;;;;;1.10;0.97;;;16.60;99.90;;;;;;5120390;28;20456;-80
2021/07/10 00:36:25;;;;;;;0.50;0.40;;;16.60;99.90;;;;;;5124443;28;20994;-79
2021/07/10 00:38:53;;;;;;;0.50;0.40;;;16.60;99.90;;;;;;5124701;28;20435;-80
2021/07/10 00:41:20;;;;;;;0.50;0.40;;;16.60;99.90;;;;;;5125240;28;20430;-80
2021/07/10 00:43:48;;;;;;;0.50;0.40;;;16.60;99.90;;;;;;5125052;28;20431;-80
2021/07/10 00:46:18;;;;;;;1.33;1.23;;;16.50;99.90;;;;;;5124604;28;20800;-80
2021/07/10 00:48:45;;;;;;;0.50;0.50;;;16.50;99.90;;;;;;5124295;28;20474;-80
2021/07/10 00:51:11;;;;;;;0.50;0.40;;;16.50;99.90;;;;;;5125286;28;20435;-81
2021/07/10 00:53:38;;;;;;;0.50;0.40;;;16.50;99.90;;;;;;5126050;28;20992;-80
2021/07/10 00:56:06;;;;;;;1.03;0.93;;;16.50;99.90;;;;;;5125316;28;20448;-81
2021/07/10 00:58:33;;;;;;;11.23;10.47;;;16.50;99.90;;;;;;5125054;28;20435;-80
2021/07/10 01:01:00;;;;;;;2.40;2.30;;;16.50;99.90;;;;;;5125519;28;20435;-80
2021/07/10 01:03:32;;;;;;;0.50;0.40;;;16.40;99.90;;;;;;5119285;28;20461;-80
2021/07/10 01:05:59;;;;;;;1.87;1.77;;;16.40;99.90;;;;;;5124789;28;20421;-80
2021/07/10 01:08:26;;;;;;;0.90;0.90;;;16.40;99.90;;;;;;5124374;28;20437;-78
2021/07/10 01:10:54;;;;;;;1.27;1.17;;;16.40;99.90;;;;;;5125228;28;20450;-81
2021/07/10 01:13:21;;;;;;;0.60;0.60;;;16.30;99.90;;;;;;5123688;28;20465;-81
2021/07/10 01:15:48;;;;;;;0.50;0.40;;;16.40;99.90;;;;;;5125582;28;20435;-80
2021/07/10 01:18:15;;;;;;;0.50;0.40;;;16.30;99.90;;;;;;5124179;28;20442;-80
2021/07/10 01:20:48;;;;;;;0.50;0.40;;;16.30;99.90;;;;;;5123964;28;20785;-81
2021/07/10 01:23:15;;;;;;;1.53;1.43;;;16.30;99.90;;;;;;5124065;28;20466;-81
2021/07/10 01:25:41;;;;;;;0.50;0.40;;;16.20;99.90;;;;;;5125224;28;20795;-79
2021/07/10 01:28:09;;;;;;;1.00;0.93;;;16.30;99.90;;;;;;5124757;28;20451;-81
2021/07/10 01:30:37;;;;;;;2.30;2.20;;;16.20;99.90;;;;;;5124706;28;20479;-80
2021/07/10 01:33:05;;;;;;;3.23;1.30;;;16.20;99.90;;;;;;5119877;28;20473;-80
2021/07/10 01:35:32;;;;;;;1.73;1.63;;;16.20;99.90;;;;;;5123725;28;20446;-81
2021/07/10 01:38:02;;;;;;;1.73;1.40;;;16.20;99.90;;;;;;5124874;28;20450;-80
2021/07/10 01:40:29;;;;;;;3.60;3.30;;;16.20;99.90;;;;;;5125602;28;20442;-78
2021/07/10 01:42:57;;;;;;;2.97;2.77;;;16.10;99.90;;;;;;5124806;28;20469;-80
2021/07/10 01:45:24;;;;;;;0.50;0.40;;;16.20;99.90;;;;;;5124346;28;20435;-81
2021/07/10 01:47:52;;;;;;;4.53;3.40;;;16.10;99.90;;;;;;5123985;28;21000;-81
2021/07/10 01:50:19;;;;;;;2.20;1.90;;;16.10;99.90;;;;;;5124373;28;20569;-81
2021/07/10 01:52:46;;;;;;;0.50;0.40;;;16.10;99.90;;;;;;5123987;28;20530;-80
2021/07/10 01:55:15;;;;;;;0.50;0.30;;;16.00;99.90;;;;;;5124571;28;20446;-80
2021/07/10 01:57:44;;;;;;;0.87;0.87;;;16.00;99.90;;;;;;5123773;28;20979;-80
2021/07/10 02:00:13;;;;;;;0.50;0.33;;;16.00;99.90;;;;;;5124643;28;20438;-80
2021/07/10 02:02:42;;;;;;;0.50;0.40;;;16.00;99.90;;;;;;5118561;28;20455;-81
2021/07/10 02:05:09;;;;;;;0.50;0.40;;;15.90;99.90;;;;;;5124048;28;20924;-80
2021/07/10 02:07:36;;;;;;;0.50;0.40;;;15.90;99.90;;;;;;5124557;28;20447;-81
2021/07/10 02:10:06;;;;;;;0.50;0.40;;;15.80;99.90;;;;;;5124247;28;20475;-81
2021/07/10 02:12:34;;;;;;;0.60;0.40;;;15.80;99.90;;;;;;5123546;28;20461;-80
2021/07/10 02:15:01;;;;;;;0.50;0.40;;;15.80;99.90;;;;;;5123465;28;20442;-80
2021/07/10 02:17:27;;;;;;;0.50;0.50;;;15.70;99.90;;;;;;5123629;28;20438;-81
2021/07/10 02:19:54;;;;;;;0.50;0.40;;;15.70;99.90;;;;;;5124004;28;20492;-80
2021/07/10 02:22:21;;;;;;;0.50;0.40;;;15.70;99.90;;;;;;5122818;28;20472;-79
2021/07/10 02:24:47;;;;;;;1.63;1.53;;;15.70;99.90;;;;;;5123610;28;20539;-81
2021/07/10 02:27:14;;;;;;;3.17;2.97;;;15.70;99.90;;;;;;5123163;28;20951;-80
2021/07/10 02:29:42;;;;;;;0.50;0.47;;;15.70;99.90;;;;;;5121100;28;20534;-80
2021/07/10 02:32:09;;;;;;;0.90;0.90;;;15.70;99.90;;;;;;5117850;28;20467;-80
2021/07/10 02:34:35;;;;;;;0.50;0.40;;;15.60;99.90;;;;;;5117471;22;20485;-82
2021/07/10 02:37:02;;;;;;;0.50;0.40;;;15.60;99.90;;;;;;5083878;28;20428;-82
2021/07/10 02:39:29;;;;;;;0.50;0.40;;;15.60;99.90;;;;;;5091634;28;20450;-82
2021/07/10 02:41:56;;;;;;;0.50;0.40;;;15.50;99.90;;;;;;5094735;28;20439;-82
2021/07/10 02:44:22;;;;;;;0.60;0.60;;;15.50;99.90;;;;;;5074365;28;20460;-81
2021/07/10 02:46:54;;;;;;;0.50;0.40;;;15.50;99.90;;;;;;5073723;28;20437;-82
2021/07/10 02:49:20;;;;;;;1.60;1.50;;;15.50;99.90;;;;;;5073382;28;20475;-82
2021/07/10 02:51:47;;;;;;;3.43;2.60;;;15.50;99.90;;;;;;5074652;28;20450;-82
2021/07/10 02:54:14;;;;;;;1.60;1.50;;;15.50;99.90;;;;;;5073701;28;20464;-82
2021/07/10 02:56:41;;;;;;;0.50;0.40;;;15.60;99.90;;;;;;5081698;28;20440;-83
2021/07/10 02:59:07;;;;;;;0.50;0.40;;;15.60;99.90;;;;;;5074818;28;20436;-77
2021/07/10 03:01:34;;;;;;;0.50;0.30;;;15.60;99.90;;;;;;5073580;28;20451;-82
2021/07/10 03:04:02;;;;;;;0.63;0.60;;;15.60;99.90;;;;;;5080186;28;20829;-79
2021/07/10 03:06:29;;;;;;;0.50;0.50;;;15.50;99.90;;;;;;5085267;28;20447;-82
2021/07/10 03:08:56;;;;;;;1.77;1.67;;;15.60;99.90;;;;;;5094163;28;20436;-81
2021/07/10 03:11:22;;;;;;;1.27;1.27;;;15.60;99.90;;;;;;5093465;28;20447;-81
2021/07/10 03:13:49;;;;;;;0.60;0.60;;;15.60;99.90;;;;;;5094147;28;20463;-83
2021/07/10 03:16:16;;;;;;;1.17;0.97;;;15.60;99.90;;;;;;5093405;28;20442;-82
2021/07/10 03:18:42;;;;;;;2.80;2.70;;;15.70;99.90;;;;;;5093426;28;20442;-81
2021/07/10 03:21:10;;;;;;;0.60;0.50;;;15.60;99.90;;;;;;5094227;28;20428;-81
2021/07/10 03:23:37;;;;;;;1.10;1.10;;;15.60;99.90;;;;;;5093921;28;20583;-81
2021/07/10 03:26:04;;;;;;;1.07;1.07;;;15.60;99.90;;;;;;5094174;28;20482;-81
2021/07/10 03:28:31;;;;;;;1.03;1.03;;;15.50;99.90;;;;;;5093794;28;20809;-81
2021/07/10 03:30:58;;;;;;;1.13;1.10;;;15.50;99.90;;;;;;5093891;28;20471;-81
2021/07/10 03:33:25;;;;;;;1.10;1.00;;;15.50;99.90;;;;;;5090954;28;20468;-81
2021/07/10 03:35:51;;;;;;;0.50;0.50;;;15.50;99.90;;;;;;5088434;28;20464;-81
2021/07/10 03:38:19;;;;;;;0.57;0.57;;;15.40;99.90;;;;;;5093427;28;20439;-80
2021/07/10 03:40:46;;;;;;;0.60;0.50;;;15.40;99.90;;;;;;5094316;28;20440;-81
2021/07/10 03:43:13;;;;;;;0.50;0.50;;;15.50;99.90;;;;;;5093619;28;20942;-81
2021/07/10 03:45:40;;;;;;;0.60;0.60;;;15.50;99.90;;;;;;5093633;28;20540;-81
2021/07/10 03:48:07;;;;;;;0.50;0.40;;;15.50;99.90;;;;;;5093469;28;20444;-77
2021/07/10 03:50:34;;;;;;;0.70;0.70;;;15.40;99.90;;;;;;5093332;28;20471;-80
2021/07/10 03:53:01;;;;;;;1.40;1.30;;;15.50;99.90;;;;;;5093355;28;20447;-81
2021/07/10 03:55:29;;;;;;;0.63;0.63;;;15.50;99.90;;;;;;5093559;28;20448;-81
2021/07/10 03:57:56;;;;;;;0.57;0.57;;;15.50;99.90;;;;;;5093273;28;20439;-81
2021/07/10 04:00:23;;;;;;;5.83;2.10;;;15.50;99.90;;;;;;5094122;28;20428;-81
2021/07/10 04:02:50;;;;;;;0.50;0.30;;;15.50;99.90;;;;;;5094184;28;20440;-81
2021/07/10 04:05:20;;;;;;;3.70;3.40;;;15.60;99.90;;;;;;5086283;28;20461;-82
2021/07/10 04:07:46;;;;;;;0.50;0.47;;;15.60;99.90;;;;;;5093228;28;20607;-81
2021/07/10 04:10:14;;;;;;;0.50;0.40;;;15.60;99.90;;;;;;5094028;28;20475;-81
2021/07/10 04:12:44;;;;;;;0.50;0.40;;;15.60;99.90;;;;;;5093901;28;20444;-81
2021/07/10 04:15:12;;;;;;;0.50;0.50;;;15.70;99.90;;;;;;5093209;28;20768;-81
2021/07/10 04:17:39;;;;;;;0.70;0.70;;;15.70;99.90;;;;;;5093883;28;20443;-81
2021/07/10 04:20:08;;;;;;;0.67;0.67;;;15.70;99.90;;;;;;5093610;28;20433;-81
2021/07/10 04:22:36;;;;;;;0.50;0.40;;;15.70;99.90;;;;;;5093919;28;20542;-81
2021/07/10 04:25:04;;;;;;;1.00;0.77;;;15.80;99.90;;;;;;5093744;28;20487;-77
2021/07/10 04:27:31;;;;;;;4.63;1.43;;;15.80;99.90;;;;;;5093298;28;20446;-81
2021/07/10 04:29:59;;;;;;;1.80;1.70;;;15.90;99.90;;;;;;5093872;28;20482;-81
2021/07/10 04:32:26;;;;;;;0.50;0.40;;;15.90;99.90;;;;;;5093555;28;20959;-82
2021/07/10 04:34:53;;;;;;;9.80;1.27;;;16.00;99.90;;;;;;5086156;28;20451;-81
2021/07/10 04:37:20;;;;;;;0.50;0.47;;;16.10;99.90;;;;;;5093574;28;20448;-81
2021/07/10 04:39:47;;;;;;;0.50;0.40;;;16.10;99.90;;;;;;5093469;28;20442;-81
2021/07/10 04:42:13;;;;;;;0.90;0.90;;;16.10;99.90;;;;;;5093830;28;20453;-78
2021/07/10 04:44:40;;;;;;;3.13;2.87;;;16.20;99.90;;;;;;5093550;28;20459;-81
2021/07/10 04:47:08;;;;;;;1.60;1.50;;;16.30;99.90;;;;;;5093895;28;21026;-81
2021/07/10 04:49:35;;;;;;;0.83;0.60;;;16.30;99.90;;;;;;5097204;28;20450;-80
2021/07/10 04:52:02;;;;;;;0.50;0.30;;;16.40;99.90;;;;;;5097460;28;20447;-81
2021/07/10 04:54:29;;;;;;;1.20;0.90;;;16.50;99.90;;;;;;5096932;28;20494;-82
2021/07/10 04:56:55;;;;;;;0.60;0.40;;;16.60;99.90;;;;;;5097349;28;20447;-81
2021/07/10 04:59:22;;;;;;;0.50;0.40;;;16.60;99.90;;;;;;5097664;28;20431;-81
2021/07/10 05:01:49;;;;;;;2.03;1.90;;;16.70;99.90;;;;;;5097346;28;20440;-81
2021/07/10 05:04:17;;;;;;;1.10;1.10;;;16.80;99.90;;;;;;5089412;28;20468;-79
2021/07/10 05:06:43;;;;;;;0.73;0.70;;;16.90;99.90;;;;;;5097293;28;20431;-82
2021/07/10 05:09:10;;;;;;;0.50;0.43;;;16.90;99.90;;;;;;5097028;28;20432;-80
2021/07/10 05:11:37;;;;;;;0.50;0.30;;;17.00;99.90;;;;;;5097575;28;20478;-83
2021/07/10 05:14:04;;;;;;;0.50;0.30;;;17.10;99.90;;;;;;5096643;28;20464;-81
2021/07/10 05:16:31;;;;;;;0.50;0.40;;;17.30;99.90;;;;;;5096458;28;20432;-83
2021/07/10 05:18:58;;;;;;;0.50;0.30;;;17.40;99.90;;;;;;5096727;28;20948;-81
2021/07/10 05:21:26;;;;;;;0.50;0.40;;;17.50;99.90;;;;;;5096704;28;20436;-82
2021/07/10 05:23:52;;;;;;;1.03;1.03;;;17.70;99.90;;;;;;5097127;28;20464;-80
2021/07/10 05:26:19;;;;;;;0.50;0.30;;;17.80;99.90;;;;;;5097040;28;20440;-82
2021/07/10 05:28:46;;;;;;;0.50;0.30;;;18.00;99.90;;;;;;5097130;28;21043;-82
2021/07/10 05:31:12;;;;;;;0.50;0.40;;;18.20;99.90;;;;;;5096768;28;20491;-77
2021/07/10 05:33:39;;;;;;;0.50;0.30;;;18.50;99.90;;;;;;5093601;28;20821;-82
2021/07/10 05:36:06;;;;;;;0.50;0.43;;;18.80;99.90;;;;;;5098904;28;20546;-82
2021/07/10 05:38:34;;;;;;;3.63;2.33;;;19.00;99.90;;;;;;5101911;28;20439;-83
2021/07/10 05:41:01;;;;;;;0.50;0.40;;;19.20;99.90;;;;;;5098385;28;20440;-84
2021/07/10 05:43:28;;;;;;;0.50;0.30;;;19.60;99.90;;;;;;5099196;28;20467;-83
2021/07/10 05:45:55;;;;;;;1.17;1.17;;;19.90;99.90;;;;;;5098229;28;20844;-83
2021/07/10 05:48:22;;;;;;;0.50;0.30;;;20.10;99.90;;;;;;5098250;28;20440;-81
2021/07/10 05:50:49;;;;;;;0.50;0.30;;;20.20;99.90;;;;;;5097539;28;21008;-81
2021/07/10 05:53:16;;;;;;;0.50;0.40;;;20.30;99.90;;;;;;5098301;28;20436;-81
2021/07/10 05:55:44;;;;;;;0.87;0.87;;;20.40;99.90;;;;;;5098400;28;20446;-80
2021/07/10 05:58:13;;;;;;;0.50;0.30;;;20.20;99.90;;;;;;5097896;28;20436;-81
2021/07/10 06:00:39;;;;;;;0.60;0.50;;;20.30;99.90;;;;;;5097897;28;20443;-81
2021/07/10 06:03:06;;;;;;;0.70;0.70;;;20.30;99.90;;;;;;5097900;28;20957;-82
2021/07/10 06:05:33;;;;;;;0.50;0.30;;;20.30;99.90;;;;;;5091267;28;20486;-81
2021/07/10 06:08:00;;;;;;;0.50;0.40;;;20.30;99.90;;;;;;5097525;28;20428;-81
2021/07/10 06:10:27;;;;;;;0.93;0.90;;;20.40;99.90;;;;;;5098134;28;20476;-81
2021/07/10 06:12:55;;;;;;;0.50;0.30;;;20.40;99.90;;;;;;5097958;28;20444;-81
2021/07/10 06:15:22;;;;;;;0.50;0.30;;;20.20;99.90;;;;;;5097919;28;20460;-81
2021/07/10 06:17:49;;;;;;;0.60;0.50;;;20.20;99.90;;;;;;5098484;28;20444;-80
2021/07/10 06:20:17;;;;;;;0.97;0.97;;;20.30;99.90;;;;;;5098230;28;20441;-81
2021/07/10 06:22:47;;;;;;;1.37;1.27;;;20.20;99.90;;;;;;5096801;28;20440;-81
2021/07/10 06:25:14;;;;;;;4.70;2.67;;;20.10;99.90;;;;;;5099849;28;20452;-81
2021/07/10 06:27:41;;;;;;;1.50;1.33;;;20.00;99.90;;;;;;5101730;28;20470;-78
2021/07/10 06:30:11;;;;;;;3.13;2.93;;;19.90;99.90;;;;;;5103532;28;20441;-81
2021/07/10 06:32:39;;;;;;;1.27;0.90;;;20.00;99.90;;;;;;5097866;28;20524;-81
2021/07/10 06:35:07;;;;;;;0.60;0.50;;;19.90;99.90;;;;;;5090570;28;20973;-81
2021/07/10 06:37:34;;;;;;;0.80;0.80;;;20.10;99.90;;;;;;5098378;28;20448;-80
2021/07/10 06:40:00;;;;;;;0.50;0.30;;;20.30;99.90;;;;;;5097983;28;20982;-81
2021/07/10 06:42:27;;;;;;;2.10;1.90;;;20.30;99.90;;;;;;5098117;28;20437;-82
2021/07/10 06:44:54;;;;;;;0.50;0.30;;;20.50;99.90;;;;;;5098081;28;20457;-80
2021/07/10 06:47:22;;;;;;;0.63;0.57;;;20.60;99.90;;;;;;5097397;28;20441;-84
2021/07/10 06:49:49;;;;;;;0.50;0.30;;;20.70;99.90;;;;;;5097105;28;20443;-81
2021/07/10 06:52:16;;;;;;;0.50;0.30;;;20.90;99.90;;;;;;5097445;28;20499;-78
2021/07/10 06:54:42;;;;;;;0.93;0.70;;;21.10;99.90;;;;;;5097995;28;21057;-81
2021/07/10 06:57:09;;;;;;;2.57;2.37;;;21.20;99.90;;;;;;5097745;28;20443;-82
2021/07/10 06:59:36;;;;;;;1.13;1.03;;;21.20;99.90;;;;;;5097538;28;20433;-81
2021/07/10 07:02:03;;;;;;;0.50;0.30;;;21.20;99.90;;;;;;5097262;28;20442;-80
2021/07/10 07:04:31;;;;;;;3.47;2.87;;;21.30;99.90;;;;;;5090412;28;20467;-82
2021/07/10 07:06:58;;;;;;;1.53;1.03;;;21.40;99.90;;;;;;5097664;28;20429;-80
2021/07/10 07:09:24;;;;;;;0.93;0.83;;;21.40;99.90;;;;;;5096628;28;20446;-82
2021/07/10 07:11:51;;;;;;;1.00;0.87;;;21.40;99.90;;;;;;5096823;28;20477;-81
2021/07/10 07:14:18;;;;;;;0.60;0.60;;;21.30;99.90;;;;;;5095912;28;20466;-80
2021/07/10 07:16:45;;;;;;;0.50;0.40;;;21.40;99.90;;;;;;5094936;28;20441;-81
2021/07/10 07:19:12;;;;;;;0.50;0.30;;;21.50;99.90;;;;;;5094982;28;20440;-80
2021/07/10 07:21:40;;;;;;;0.50;0.30;;;21.90;99.90;;;;;;5100304;28;20429;-80
2021/07/10 07:24:07;;;;;;;0.50;0.30;;;22.20;99.90;;;;;;5098967;28;20460;-80
2021/07/10 07:26:34;;;;;;;0.50;0.33;;;22.70;99.90;;;;;;5096398;28;20442;-80
2021/07/10 07:29:01;;;;;;;2.40;1.90;;;22.90;99.90;;;;;;5097352;28;20452;-81
2021/07/10 07:31:27;;;;;;;2.97;1.53;;;22.90;99.90;;;;;;5096722;28;20552;-82
2021/07/10 07:33:54;;;;;;;0.60;0.50;;;23.10;99.90;;;;;;5091383;28;20481;-82
2021/07/10 07:36:21;;;;;;;2.80;2.63;;;23.80;99.90;;;;;;5095352;28;20432;-79
2021/07/10 07:38:49;;;;;;;0.70;0.70;;;24.90;99.90;;;;;;5096944;28;20454;-80
2021/07/10 07:41:16;;;;;;;1.90;1.40;;;25.20;99.90;;;;;;5096809;28;20443;-81
2021/07/10 07:43:42;;;;;;;1.83;1.13;;;24.80;99.90;;;;;;5097106;28;20557;-81
2021/07/10 07:46:09;;;;;;;3.57;2.10;;;24.90;99.90;;;;;;5096366;28;20447;-82
2021/07/10 07:48:36;;;;;;;0.50;0.30;;;24.50;99.90;;;;;;5096176;28;20873;-81
2021/07/10 07:51:03;;;;;;;0.50;0.30;;;23.90;99.90;;;;;;5096887;28;20487;-81
2021/07/10 07:53:29;;;;;;;2.20;1.60;;;24.40;99.90;;;;;;5096961;28;20464;-82
2021/07/10 07:55:57;;;;;;;0.50;0.40;;;24.70;99.90;;;;;;5097032;28;20452;-81
2021/07/10 07:58:24;;;;;;;0.50;0.30;;;25.10;99.90;;;;;;5097039;28;20443;-81
2021/07/10 08:00:51;;;;;;;2.40;2.00;;;25.40;99.90;;;;;;5096572;28;20439;-81
2021/07/10 08:03:18;;;;;;;0.83;0.63;;;25.70;99.90;;;;;;5095691;28;20798;-81
2021/07/10 08:05:44;;;;;;;1.90;1.50;;;25.60;99.90;;;;;;5090427;28;20432;-82
2021/07/10 08:08:12;;;;;;;0.83;0.83;;;25.70;99.90;;;;;;5096771;28;20937;-81
2021/07/10 08:10:39;;;;;;;0.50;0.30;;;25.80;99.90;;;;;;5097396;28;20444;-81
2021/07/10 08:13:07;;;;;;;0.50;0.30;;;26.20;99.90;;;;;;5097574;28;20447;-83
2021/07/10 08:15:34;;;;;;;0.50;0.30;;;26.70;99.90;;;;;;5096599;28;20448;-81
2021/07/10 08:18:01;;;;;;;2.50;1.13;;;27.60;99.90;;;;;;5096816;28;20443;-82
2021/07/10 08:20:27;;;;;;;0.50;0.30;;;28.60;99.90;;;;;;5096098;28;20486;-81
2021/07/10 08:22:55;;;;;;;0.50;0.30;;;28.50;99.90;;;;;;5099869;28;20941;-81
2021/07/10 08:25:22;;;;;;;0.50;0.30;;;28.30;99.90;;;;;;5100806;28;20460;-82
2021/07/10 08:27:49;;;;;;;0.50;0.40;;;29.10;99.90;;;;;;5100479;28;20514;-82
2021/07/10 08:30:18;;;;;;;0.90;0.90;;;29.00;99.90;;;;;;5100105;28;20447;-82
2021/07/10 08:32:46;;;;;;;0.50;0.30;;;28.40;95.30;;;;;;5099334;28;20487;-81
2021/07/10 08:35:13;;;;;;;0.50;0.30;;;27.90;99.90;;;;;;5092853;28;20476;-81
2021/07/10 08:37:40;;;;;;;0.67;0.67;;;28.20;99.90;;;;;;5101261;28;20445;-82
2021/07/10 08:40:09;;;;;;;2.20;1.00;;;28.90;95.90;;;;;;5099450;28;20438;-80
2021/07/10 08:42:36;;;;;;;0.50;0.30;;;28.80;92.50;;;;;;5098981;28;20443;-83
2021/07/10 08:45:06;;;;;;;0.90;0.63;;;29.10;94.00;;;;;;5099306;28;20469;-81
2021/07/10 08:47:36;;;;;;;0.70;0.70;;;29.30;89.30;;;;;;5099662;28;20446;-82
2021/07/10 08:50:05;;;;;;;0.50;0.30;;;30.00;90.80;;;;;;5100773;28;20445;-82
2021/07/10 08:52:34;;;;;;;0.50;0.30;;;31.20;91.30;;;;;;5099763;28;20473;-83
2021/07/10 08:55:01;;;;;;;0.50;0.43;;;32.40;80.30;;;;;;5099756;28;21007;-82
2021/07/10 08:57:27;;;;;;;1.93;1.83;;;32.60;71.20;;;;;;5098310;28;20435;-83
2021/07/10 08:59:54;;;;;;;0.40;0.30;;;32.50;71.20;;;;;;5099681;28;20440;-82
2021/07/10 09:02:21;;;;;;;10.90;0.90;;;31.70;73.20;;;;;;5098486;28;20490;-83
2021/07/10 09:04:49;;;;;;;0.40;0.30;;;31.80;72.00;;;;;;5091576;28;20494;-82
2021/07/10 09:07:15;;;;;;;0.50;0.30;;;32.10;73.90;;;;;;5098714;28;20440;-84
2021/07/10 09:09:44;;;;;;;1.27;1.03;;;31.90;70.30;;;;;;5099141;28;20645;-82
2021/07/10 09:12:12;;;;;;;0.50;0.30;;;31.20;71.00;;;;;;5097684;28;20988;-81
2021/07/10 09:14:40;;;;;;;0.90;0.70;;;30.50;75.10;;;;;;5095111;28;20498;-82
2021/07/10 09:17:18;;;;;;;0.50;0.30;;;30.10;74.70;;;;;;5090186;28;20808;-79
2021/07/10 09:19:45;;;;;;;0.50;0.30;;;29.90;76.80;;;;;;5099213;28;20787;-82
2021/07/10 09:22:27;;;;;;;0.50;0.40;;;30.00;78.30;;;;;;5099173;28;20437;-82
2021/07/10 09:24:55;;;;;;;0.50;0.30;;;30.50;79.20;;;;;;5098726;28;20478;-82
2021/07/10 09:27:22;;;;;;;0.50;0.40;;;30.90;76.90;;;;;;5098945;28;20431;-81
2021/07/10 09:29:49;;;;;;;0.50;0.50;;;30.90;76.50;;;;;;5098893;28;20436;-83
2021/07/10 09:32:19;;;;;;;0.50;0.30;;;30.70;77.50;;;;;;5098981;28;20482;-77
2021/07/10 09:34:48;;;;;;;0.50;0.30;;;30.80;78.80;;;;;;5098022;28;20479;-82
2021/07/10 09:37:20;;;;;;;0.60;0.57;;;30.90;75.20;;;;;;5098173;28;20450;-82
2021/07/10 09:39:55;;;;;;;0.50;0.30;;;30.50;73.70;;;;;;5098521;28;20437;-82
2021/07/10 09:42:26;;;;;;;0.50;0.30;;;29.90;78.80;;;;;;5098861;28;20442;-83
2021/07/10 09:44:55;;;;;;;0.50;0.30;;;28.90;80.40;;;;;;5098253;28;20463;-83
2021/07/10 09:47:26;;;;;;;0.50;0.30;;;28.80;86.30;;;;;;5094848;28;20458;-81
2021/07/10 09:49:54;;;;;;;0.50;0.30;;;28.50;87.60;;;;;;5096932;28;20456;-83
2021/07/10 09:52:24;;;;;;;0.50;0.30;;;28.40;88.20;;;;;;5097291;28;20481;-82
2021/07/10 09:54:53;;;;;;;0.50;0.30;;;28.80;92.60;;;;;;5096954;28;20463;-83
2021/07/10 09:57:21;;;;;;;0.60;0.60;;;29.00;90.30;;;;;;5097062;28;20443;-82
2021/07/10 09:59:51;;;;;;;0.50;0.30;;;29.10;89.70;;;;;;5097273;28;20451;-82
2021/07/10 10:02:26;;;;;;;0.70;0.50;;;29.50;86.40;;;;;;5097149;28;20441;-81
2021/07/10 10:04:59;;;;;;;0.50;0.30;;;29.70;84.40;;;;;;5096479;28;20993;-81
2021/07/10 10:07:27;;;;;;;0.50;0.30;;;29.40;84.40;;;;;;5096885;28;20444;-82
2021/07/10 10:09:57;;;;;;;0.50;0.30;;;29.90;82.30;;;;;;5097352;28;20450;-81
2021/07/10 10:12:24;;;;;;;0.50;0.30;;;30.30;80.50;;;;;;5096989;28;20479;-83
2021/07/10 10:14:56;;;;;;;0.50;0.30;;;30.60;77.50;;;;;;5094574;28;20979;-79
2021/07/10 10:17:24;;;;;;;0.50;0.43;;;31.10;75.80;;;;;;5091817;28;20482;-81
2021/07/10 10:19:51;;;;;;;0.50;0.30;;;30.80;78.00;;;;;;5093973;28;20449;-81
2021/07/10 10:22:20;;;;;;;0.50;0.30;;;30.20;79.30;;;;;;5094200;28;20910;-81
2021/07/10 10:24:49;;;;;;;2.77;2.00;;;30.50;79.60;;;;;;5093722;28;20463;-81
2021/07/10 10:27:17;;;;;;;0.50;0.30;;;30.20;75.90;;;;;;5093729;28;20446;-81
2021/07/10 10:29:45;;;;;;;0.50;0.30;;;29.60;80.20;;;;;;5094355;28;20441;-81
2021/07/10 10:32:13;;;;;;;0.50;0.30;;;29.30;82.20;;;;;;5093860;28;20484;-81
2021/07/10 10:34:40;;;;;;;0.50;0.40;;;29.20;81.40;;;;;;5093222;28;20475;-80
2021/07/10 10:37:09;;;;;;;0.50;0.30;;;29.00;80.50;;;;;;5093945;28;20956;-81
2021/07/10 10:39:36;;;;;;;0.50;0.30;;;28.40;84.10;;;;;;5093860;28;20846;-81
2021/07/10 10:42:08;;;;;;;0.50;0.30;;;27.90;88.40;;;;;;5093532;28;20929;-81
2021/07/10 10:44:38;;;;;;;0.50;0.30;;;27.10;88.70;;;;;;5093107;28;20467;-82
2021/07/10 10:47:06;;;;;;;1.10;0.70;;;27.00;95.40;;;;;;5090609;28;20439;-81
2021/07/10 10:49:44;;;;;;;0.50;0.30;;;26.90;96.50;;;;;;5092961;28;20930;-81
2021/07/10 10:52:36;;;;;;;0.50;0.40;;;26.60;98.40;;;;;;5093497;28;20964;-81
2021/07/10 10:55:15;;;;;;;0.50;0.30;;;26.50;99.90;;;;;;5074593;28;20463;-81
2021/07/10 10:57:49;;;;;;;0.50;0.30;;;26.20;99.90;;;;;;5093377;28;20420;-80
2021/07/10 11:00:26;;;;;;;1.13;1.03;;;25.90;99.90;;;;;;5094000;28;20793;-80
2021/07/10 11:03:02;;;;;;;0.50;0.30;;;25.80;99.90;;;;;;5093548;28;20425;-82
2021/07/10 11:05:53;;;;;;;0.50;0.30;;;25.60;99.90;;;;;;5093239;28;20432;-81
2021/07/10 11:08:32;;;;;;;0.50;0.30;;;25.80;99.90;;;;;;5093844;28;20427;-81
2021/07/10 11:11:27;;;;;;;0.67;0.67;;;25.90;99.90;;;;;;5093551;28;20440;-81
2021/07/10 11:14:18;;;;;;;0.53;0.40;;;25.80;99.90;;;;;;5093639;28;20491;-83
2021/07/10 11:17:12;;;;;;;0.50;0.40;;;26.00;99.90;;;;;;5082774;28;20523;-81
2021/07/10 11:19:59;;;;;;;0.50;0.30;;;26.30;99.90;;;;;;5086023;28;20438;-81
2021/07/10 11:22:58;;;;;;;0.50;0.30;;;26.80;99.90;;;;;;5093598;28;20431;-81
2021/07/10 11:26:00;;;;;;;0.50;0.40;;;27.50;99.90;;;;;;5092843;28;20456;-82
2021/07/10 11:28:31;;;;;;;0.50;0.30;;;27.90;99.90;;;;;;5093733;28;20433;-81
2021/07/10 11:31:01;;;;;;;0.50;0.30;;;28.40;99.90;;;;;;5092380;28;20515;-82
2021/07/10 11:34:06;;;;;;;0.50;0.30;;;28.80;94.80;;;;;;5093236;28;20861;-81
2021/07/10 11:36:55;;;;;;;1.07;0.97;;;28.90;91.30;;;;;;5094215;28;20445;-82
2021/07/10 11:39:36;;;;;;;3.30;0.80;;;28.90;91.80;;;;;;5093793;28;20494;-81
2021/07/10 11:42:32;;;;;;;0.50;0.30;;;29.40;94.80;;;;;;5094084;28;20434;-81
2021/07/10 11:45:12;;;;;;;0.50;0.30;;;29.20;91.10;;;;;;5094031;28;20460;-81
2021/07/10 11:47:42;;;;;;;0.50;0.30;;;29.60;91.10;;;;;;5091104;28;20588;-82
2021/07/10 11:50:14;;;;;;;0.50;0.30;;;29.30;87.50;;;;;;5094002;28;20796;-80
2021/07/10 11:52:40;;;;;;;0.90;0.70;;;29.40;85.70;;;;;;5093865;28;20477;-81
2021/07/10 11:55:10;;;;;;;0.50;0.40;;;29.50;81.40;;;;;;5093395;28;20457;-80
2021/07/10 11:57:39;;;;;;;0.50;0.30;;;29.90;84.60;;;;;;5096727;28;20449;-81
2021/07/10 12:00:07;;;;;;;0.50;0.30;;;29.70;85.10;;;;;;5098176;28;20442;-81
2021/07/10 12:02:34;;;;;;;0.50;0.30;;;29.40;83.50;;;;;;5097119;28;20448;-81
2021/07/10 12:05:07;;;;;;;0.50;0.30;;;29.30;80.80;;;;;;5097742;28;20461;-80
2021/07/10 12:07:35;;;;;;;0.50;0.30;;;29.10;81.40;;;;;;5097136;28;20802;-81
2021/07/10 12:10:05;;;;;;;0.50;0.30;;;28.60;83.80;;;;;;5098381;28;20437;-81
2021/07/10 12:12:33;;;;;;;0.50;0.30;;;28.70;90.50;;;;;;5098207;28;20496;-82
2021/07/10 12:14:59;;;;;;;0.50;0.30;;;29.10;89.90;;;;;;5097054;28;20462;-81
2021/07/10 12:17:27;;;;;;;0.50;0.30;;;29.60;88.70;;;;;;5094908;28;20443;-81
2021/07/10 12:19:54;;;;;;;0.50;0.40;;;30.70;87.30;;;;;;5097024;28;20444;-81
2021/07/10 12:22:23;;;;;;;0.50;0.50;;;32.00;80.80;;;;;;5098432;28;20438;-81
2021/07/10 12:24:59;;;;;;;0.50;0.30;;;32.90;67.30;;;;;;5097331;28;20491;-79
2021/07/10 12:27:30;;;;;;;0.47;0.30;;;33.60;64.30;;;;;;5097874;28;20424;-81
2021/07/10 12:29:57;;;;;;;0.50;0.30;;;33.90;59.90;;;;;;5097128;28;20439;-81
2021/07/10 12:32:24;;;;;;;0.47;0.30;;;34.20;59.60;;;;;;5097529;28;20469;-81
2021/07/10 12:34:53;;;;;;;0.40;0.30;;;34.90;60.00;;;;;;5097013;28;20468;-80
2021/07/10 12:37:27;;;;;;;0.40;0.30;;;35.60;56.70;;;;;;5097786;28;20827;-80
2021/07/10 12:40:04;;;;;;;0.40;0.30;;;36.00;57.00;;;;;;5097336;28;20437;-81
2021/07/10 12:42:31;;;;;;;0.70;0.70;;;35.90;56.10;;;;;;5096566;28;20431;-81
2021/07/10 12:44:58;;;;;;;0.50;0.47;;;35.40;53.80;;;;;;5097931;28;20461;-82
2021/07/10 12:47:26;;;;;;;0.50;0.30;;;33.40;57.20;;;;;;5093959;28;20445;-82
2021/07/10 12:49:55;;;;;;;0.50;0.30;;;32.40;57.80;;;;;;5096474;28;20453;-81
2021/07/10 12:52:26;;;;;;;0.50;0.30;;;31.40;61.90;;;;;;5096932;28;20477;-80
2021/07/10 12:54:56;;;;;;;0.50;0.30;;;30.70;62.10;;;;;;5096990;28;20461;-81